createdAt,value
2023-03-28T00:01:28.916Z,76.49
2023-03-28T00:03:57.195Z,76.84
2023-03-28T00:06:26.463Z,77.11
2023-03-28T00:08:55.820Z,76.76
2023-03-28T00:11:24.306Z,76.90
2023-03-28T00:13:57.654Z,77.19
2023-03-28T00:16:26.646Z,77.15
2023-03-28T00:18:54.625Z,77.49
2023-03-28T00:21:25.584Z,77.65
2023-03-28T00:23:56.357Z,77.48
2023-03-28T00:26:26.879Z,77.96
2023-03-28T00:28:55.262Z,78.08
2023-03-28T00:31:24.022Z,77.90
2023-03-28T00:33:51.905Z,78.53
2023-03-28T00:36:23.058Z,78.29
2023-03-28T00:38:52.226Z,78.62
2023-03-28T00:41:22.751Z,78.41
2023-03-28T00:43:52.629Z,78.77
2023-03-28T00:46:24.082Z,78.44
2023-03-28T00:48:54.673Z,78.95
2023-03-28T00:51:27.086Z,79.01
2023-03-28T00:53:58.036Z,79.09
2023-03-28T00:56:30.811Z,79.36
2023-03-28T00:58:59.907Z,78.85
2023-03-28T01:01:28.326Z,79.47
2023-03-28T01:04:03.045Z,79.67
2023-03-28T01:06:33.482Z,79.82
2023-03-28T01:09:04.610Z,79.64
2023-03-28T01:11:36.226Z,79.71
2023-03-28T01:14:07.127Z,79.76
2023-03-28T01:16:41.776Z,79.26
2023-03-28T01:19:21.876Z,79.44
2023-03-28T01:22:38.143Z,80.44
2023-03-28T01:25:47.625Z,80.41
2023-03-28T01:28:30.130Z,79.68
2023-03-28T01:31:37.429Z,80.25
2023-03-28T01:34:31.605Z,80.82
2023-03-28T01:37:11.365Z,80.12
2023-03-28T01:39:56.193Z,79.82
2023-03-28T01:42:31.545Z,80.40
2023-03-28T01:45:08.308Z,80.48
2023-03-28T01:47:41.263Z,80.97
2023-03-28T01:50:18.293Z,80.55
2023-03-28T01:52:53.819Z,80.93
2023-03-28T01:55:25.451Z,80.91
2023-03-28T01:58:02.058Z,81.74
2023-03-28T02:00:34.624Z,81.32
2023-03-28T02:03:07.136Z,81.84
2023-03-28T02:05:37.260Z,82.28
2023-03-28T02:08:10.998Z,82.56
2023-03-28T02:10:40.044Z,82.79
2023-03-28T02:13:12.865Z,82.42
2023-03-28T02:15:42.365Z,82.99
2023-03-28T02:18:18.049Z,83.56
2023-03-28T02:20:47.012Z,82.93
2023-03-28T02:23:20.229Z,83.37
2023-03-28T02:25:48.332Z,84.21
2023-03-28T02:28:17.207Z,83.87
2023-03-28T02:30:45.618Z,83.74
2023-03-28T02:33:37.802Z,84.44
2023-03-28T02:36:15.024Z,83.97
2023-03-28T02:38:50.819Z,83.93
2023-03-28T02:41:33.323Z,84.08
2023-03-28T02:44:23.205Z,84.36
2023-03-28T02:47:06.543Z,84.53
2023-03-28T02:49:50.455Z,84.29
2023-03-28T02:52:30.545Z,84.56
2023-03-28T02:55:03.236Z,84.50
2023-03-28T02:57:34.665Z,84.63
2023-03-28T03:00:12.381Z,84.42
2023-03-28T03:02:41.190Z,85.16
2023-03-28T03:05:10.606Z,85.27
2023-03-28T03:07:38.965Z,85.12
2023-03-28T03:10:10.575Z,84.76
2023-03-28T03:12:38.674Z,84.55
2023-03-28T03:15:07.716Z,85.44
2023-03-28T03:17:35.540Z,85.50
2023-03-28T03:20:06.758Z,85.52
2023-03-28T03:22:34.618Z,85.04
2023-03-28T03:25:06.631Z,84.75
2023-03-28T03:27:37.249Z,85.10
2023-03-28T03:30:05.593Z,85.07
2023-03-28T03:32:33.669Z,85.30
2023-03-28T03:35:01.607Z,85.43
2023-03-28T03:37:29.337Z,85.63
2023-03-28T03:39:57.045Z,85.37
2023-03-28T03:42:24.851Z,85.07
2023-03-28T03:44:54.506Z,85.48
2023-03-28T03:47:22.207Z,85.83
2023-03-28T03:49:49.918Z,85.35
2023-03-28T03:52:17.644Z,85.36
2023-03-28T03:54:45.368Z,86.03
2023-03-28T03:57:13.156Z,85.15
2023-03-28T03:59:40.982Z,85.59
2023-03-28T04:02:10.560Z,86.39
2023-03-28T04:04:40.513Z,86.46
2023-03-28T04:07:08.584Z,85.82
2023-03-28T04:09:36.313Z,85.86
2023-03-28T04:12:04.374Z,85.98
2023-03-28T04:14:32.074Z,86.47
2023-03-28T04:16:59.790Z,86.28
2023-03-28T04:19:28.858Z,86.35
2023-03-28T04:21:57.663Z,86.82
2023-03-28T04:24:25.455Z,86.94
2023-03-28T04:26:55.965Z,87.14
2023-03-28T04:29:30.571Z,86.95
2023-03-28T04:31:58.874Z,87.19
2023-03-28T04:34:30.802Z,87.45
2023-03-28T04:37:01.666Z,87.31
2023-03-28T04:39:30.455Z,87.18
2023-03-28T04:42:01.894Z,87.55
2023-03-28T04:44:30.393Z,87.14
2023-03-28T04:46:58.270Z,87.36
2023-03-28T04:49:26.767Z,87.81
2023-03-28T04:51:55.874Z,87.83
2023-03-28T04:54:23.570Z,87.80
2023-03-28T04:56:51.374Z,88.73
2023-03-28T04:59:19.675Z,88.25
2023-03-28T05:01:50.063Z,89.24
2023-03-28T05:04:18.398Z,88.71
2023-03-28T05:06:46.926Z,89.01
2023-03-28T05:09:17.734Z,88.98
2023-03-28T05:11:46.375Z,89.17
2023-03-28T05:14:14.261Z,89.90
2023-03-28T05:16:42.181Z,89.35
2023-03-28T05:19:11.105Z,89.96
2023-03-28T05:21:40.695Z,90.30
2023-03-28T05:24:09.672Z,89.75
2023-03-28T05:26:38.778Z,90.55
2023-03-28T05:29:06.590Z,90.42
2023-03-28T05:31:34.774Z,90.75
2023-03-28T05:34:02.633Z,90.26
2023-03-28T05:36:30.782Z,90.39
2023-03-28T05:38:58.900Z,90.99
2023-03-28T05:41:26.634Z,90.91
2023-03-28T05:43:55.701Z,91.04
2023-03-28T05:46:23.492Z,91.56
2023-03-28T05:48:51.488Z,91.33
2023-03-28T05:51:19.336Z,91.30
2023-03-28T05:53:47.034Z,91.63
2023-03-28T05:56:14.760Z,92.24
2023-03-28T05:58:42.471Z,92.43
2023-03-28T06:01:12.871Z,91.62
2023-03-28T06:03:42.587Z,91.91
2023-03-28T06:06:10.546Z,92.35
2023-03-28T06:08:38.389Z,92.62
2023-03-28T06:11:06.727Z,92.52
2023-03-28T06:13:34.909Z,92.29
2023-03-28T06:16:02.769Z,92.99
2023-03-28T06:18:32.225Z,93.31
2023-03-28T06:21:00.230Z,92.80
2023-03-28T06:23:28.217Z,92.85
2023-03-28T06:25:55.958Z,93.67
2023-03-28T06:28:23.707Z,93.25
2023-03-28T06:30:52.312Z,93.43
2023-03-28T06:33:20.439Z,93.58
2023-03-28T06:35:49.622Z,94.06
2023-03-28T06:38:17.509Z,93.40
2023-03-28T06:40:45.646Z,94.33
2023-03-28T06:43:13.384Z,93.93
2023-03-28T06:45:42.128Z,94.36
2023-03-28T06:48:09.939Z,94.80
2023-03-28T06:50:37.730Z,94.29
2023-03-28T06:53:06.834Z,95.13
2023-03-28T06:55:36.060Z,94.65
2023-03-28T06:58:03.925Z,95.10
2023-03-28T07:00:31.652Z,94.88
2023-03-28T07:02:59.503Z,95.13
2023-03-28T07:05:27.447Z,95.86
2023-03-28T07:07:55.229Z,95.61
2023-03-28T07:10:24.349Z,95.80
2023-03-28T07:12:52.068Z,95.75
2023-03-28T07:15:19.827Z,95.25
2023-03-28T07:17:47.600Z,95.62
2023-03-28T07:20:15.788Z,95.67
2023-03-28T07:22:43.554Z,95.57
2023-03-28T07:25:11.523Z,95.15
2023-03-28T07:27:40.695Z,95.23
2023-03-28T07:30:09.924Z,94.98
2023-03-28T07:32:49.921Z,94.40
2023-03-28T07:35:22.217Z,94.44
2023-03-28T07:37:50.048Z,94.30
2023-03-28T07:40:18.100Z,94.17
2023-03-28T07:42:49.321Z,93.75
2023-03-28T07:45:17.298Z,93.66
2023-03-28T07:47:45.815Z,93.62
2023-03-28T07:50:13.685Z,93.00
2023-03-28T07:52:45.631Z,92.91
2023-03-28T07:55:13.872Z,92.02
2023-03-28T07:57:42.001Z,92.33
2023-03-28T08:00:13.125Z,92.17
2023-03-28T08:02:44.029Z,91.53
2023-03-28T08:05:12.819Z,90.51
2023-03-28T08:07:42.058Z,90.07
2023-03-28T08:10:10.431Z,89.43
2023-03-28T08:12:38.586Z,88.95
2023-03-28T08:15:07.431Z,89.12
2023-03-28T08:17:36.822Z,88.64
2023-03-28T08:20:10.031Z,88.94
2023-03-28T08:22:37.971Z,88.14
2023-03-28T08:25:06.653Z,87.65
2023-03-28T08:27:34.981Z,86.61
2023-03-28T08:30:02.848Z,86.27
2023-03-28T08:32:31.175Z,85.45
2023-03-28T08:35:03.198Z,84.96
2023-03-28T08:37:31.461Z,83.96
2023-03-28T08:40:00.665Z,82.97
2023-03-28T08:42:38.755Z,80.51
2023-03-28T08:45:38.141Z,79.75
2023-03-28T08:48:16.908Z,78.02
2023-03-28T08:50:49.123Z,78.23
2023-03-28T08:53:23.712Z,77.93
2023-03-28T08:55:53.850Z,77.21
2023-03-28T08:58:23.507Z,77.51
2023-03-28T09:00:52.824Z,74.94
2023-03-28T09:03:24.151Z,74.58
2023-03-28T09:06:02.471Z,73.25
2023-03-28T09:08:42.332Z,73.40
2023-03-28T09:11:23.094Z,72.56
2023-03-28T09:14:01.347Z,71.87
2023-03-28T09:16:44.382Z,71.01
2023-03-28T09:19:34.194Z,70.05
2023-03-28T09:22:24.872Z,69.60
2023-03-28T09:25:24.770Z,68.55
2023-03-28T09:28:00.797Z,68.45
2023-03-28T09:30:32.469Z,66.94
2023-03-28T09:33:04.607Z,63.74
2023-03-28T09:35:33.575Z,64.03
2023-03-28T09:38:05.028Z,64.41
2023-03-28T09:40:36.019Z,64.31
2023-03-28T09:43:13.219Z,62.57
2023-03-28T09:45:51.169Z,61.79
2023-03-28T09:48:24.246Z,60.07
2023-03-28T09:50:52.762Z,59.99
2023-03-28T09:53:27.459Z,58.84
2023-03-28T09:56:04.309Z,56.69
2023-03-28T09:58:50.081Z,56.51
2023-03-28T10:01:27.331Z,55.57
2023-03-28T10:03:56.760Z,54.42
2023-03-28T10:06:27.767Z,53.91
2023-03-28T10:09:10.731Z,55.12
2023-03-28T10:11:54.619Z,53.55
2023-03-28T10:14:34.170Z,53.17
2023-03-28T10:17:04.098Z,55.23
2023-03-28T10:19:34.949Z,55.57
2023-03-28T10:22:07.409Z,55.08
2023-03-28T10:24:37.764Z,54.02
2023-03-28T10:27:15.204Z,52.09
2023-03-28T10:29:43.874Z,52.28
2023-03-28T10:32:14.426Z,52.50
2023-03-28T10:34:42.216Z,51.86
2023-03-28T10:37:24.302Z,51.13
2023-03-28T10:40:07.117Z,50.97
2023-03-28T10:42:42.908Z,51.02
2023-03-28T10:45:21.627Z,52.29
2023-03-28T10:47:51.893Z,52.21
2023-03-28T10:50:28.700Z,51.62
2023-03-28T10:53:10.999Z,51.94
2023-03-28T10:56:00.081Z,52.54
2023-03-28T10:58:34.433Z,51.53
2023-03-28T11:01:10.030Z,50.42
2023-03-28T11:03:57.453Z,49.69
2023-03-28T11:06:30.562Z,49.57
2023-03-28T11:09:05.010Z,49.30
2023-03-28T11:11:46.842Z,49.54
2023-03-28T11:14:29.534Z,48.08
2023-03-28T11:17:05.307Z,48.64
2023-03-28T11:19:51.743Z,47.56
2023-03-28T11:22:28.102Z,48.19
2023-03-28T11:25:05.294Z,48.32
2023-03-28T11:27:40.800Z,48.64
2023-03-28T11:30:15.950Z,46.85
2023-03-28T11:32:48.722Z,48.27
2023-03-28T11:35:23.471Z,48.09
2023-03-28T11:38:00.834Z,47.23
2023-03-28T11:40:35.108Z,47.92
2023-03-28T11:43:07.009Z,48.75
2023-03-28T11:45:50.979Z,48.11
2023-03-28T11:48:24.311Z,47.78
2023-03-28T11:51:02.290Z,46.96
2023-03-28T11:53:34.360Z,47.40
2023-03-28T11:56:08.545Z,46.43
2023-03-28T11:58:42.112Z,46.37
2023-03-28T12:01:13.298Z,46.92
2023-03-28T12:03:58.908Z,46.06
2023-03-28T12:06:33.912Z,46.39
2023-03-28T12:09:09.688Z,46.17
2023-03-28T12:11:42.722Z,46.42
2023-03-28T12:14:27.930Z,45.99
2023-03-28T12:16:56.785Z,45.87
2023-03-28T12:19:32.742Z,45.63
2023-03-28T12:22:05.293Z,46.04
2023-03-28T12:24:43.135Z,46.83
2023-03-28T12:27:22.547Z,46.17
2023-03-28T12:29:57.061Z,45.24
2023-03-28T12:32:37.733Z,45.61
2023-03-28T12:35:15.905Z,45.23
2023-03-28T12:37:56.823Z,46.09
2023-03-28T12:40:30.564Z,46.17
2023-03-28T12:42:59.341Z,46.63
2023-03-28T12:45:31.281Z,46.13
2023-03-28T12:48:04.523Z,45.36
2023-03-28T12:50:46.965Z,45.66
2023-03-28T12:53:15.726Z,45.48
2023-03-28T12:55:48.826Z,44.82
2023-03-28T12:58:26.026Z,45.12
2023-03-28T13:01:15.617Z,45.04
2023-03-28T13:03:53.767Z,45.94
2023-03-28T13:06:29.119Z,45.36
2023-03-28T13:09:35.458Z,45.12
2023-03-28T13:12:20.086Z,46.04
2023-03-28T13:14:59.993Z,45.12
2023-03-28T13:17:31.335Z,45.16
2023-03-28T13:20:08.761Z,44.14
2023-03-28T13:22:44.280Z,44.90
2023-03-28T13:25:28.049Z,44.31
2023-03-28T13:27:57.422Z,44.83
2023-03-28T13:30:27.618Z,44.69
2023-03-28T13:32:58.742Z,44.41
2023-03-28T13:36:10.631Z,44.67
2023-03-28T13:38:46.975Z,45.43
2023-03-28T13:41:33.884Z,45.40
2023-03-28T13:44:03.255Z,46.34
2023-03-28T13:46:36.260Z,46.16
2023-03-28T13:49:08.853Z,47.42
2023-03-28T13:51:41.023Z,47.50
2023-03-28T13:54:11.108Z,47.56
2023-03-28T13:56:43.742Z,47.72
2023-03-28T13:59:16.573Z,47.58
2023-03-28T14:01:49.180Z,47.96
2023-03-28T14:04:21.662Z,47.75
2023-03-28T14:06:50.884Z,47.59
2023-03-28T14:09:22.534Z,47.85
2023-03-28T14:11:51.441Z,47.57
2023-03-28T14:14:28.388Z,47.94
2023-03-28T14:16:56.798Z,48.24
2023-03-28T14:19:35.220Z,48.47
2023-03-28T14:22:03.598Z,48.45
2023-03-28T14:24:31.437Z,48.76
2023-03-28T14:27:10.625Z,48.48
2023-03-28T14:29:52.617Z,48.93
2023-03-28T14:32:26.980Z,49.25
2023-03-28T14:34:57.309Z,49.43
2023-03-28T14:37:25.727Z,49.21
2023-03-28T14:39:54.783Z,49.18
2023-03-28T14:42:24.383Z,49.24
2023-03-28T14:44:54.794Z,49.51
2023-03-28T14:47:28.494Z,49.41
2023-03-28T14:49:58.276Z,50.09
2023-03-28T14:52:30.298Z,50.30
2023-03-28T14:54:59.259Z,50.44
2023-03-28T14:57:27.693Z,50.92
2023-03-28T14:59:57.348Z,50.41
2023-03-28T15:02:29.608Z,50.66
2023-03-28T15:05:03.070Z,51.06
2023-03-28T15:07:35.825Z,51.26
2023-03-28T15:10:10.217Z,51.55
2023-03-28T15:12:45.484Z,52.10
2023-03-28T15:15:20.540Z,52.62
2023-03-28T15:17:49.434Z,52.82
2023-03-28T15:20:22.194Z,53.70
2023-03-28T15:22:54.651Z,54.35
2023-03-28T15:25:23.402Z,54.58
2023-03-28T15:27:56.018Z,54.90
2023-03-28T15:30:24.843Z,55.30
2023-03-28T15:33:01.505Z,55.88
2023-03-28T15:35:33.498Z,56.49
2023-03-28T15:38:03.791Z,57.58
2023-03-28T15:40:38.115Z,57.56
2023-03-28T15:43:07.132Z,57.67
2023-03-28T15:45:41.555Z,58.43
2023-03-28T15:48:17.819Z,58.59
2023-03-28T15:50:51.665Z,58.95
2023-03-28T15:53:19.408Z,59.38
2023-03-28T15:55:49.918Z,59.32
2023-03-28T15:58:19.542Z,59.75
2023-03-28T16:00:49.999Z,59.82
2023-03-28T16:03:40.425Z,59.58
2023-03-28T16:06:31.495Z,59.61
2023-03-28T16:09:15.001Z,60.29
2023-03-28T16:11:42.868Z,61.03
2023-03-28T16:14:14.373Z,61.12
2023-03-28T16:16:42.317Z,61.34
2023-03-28T16:19:18.281Z,61.18
2023-03-28T16:21:47.888Z,61.56
2023-03-28T16:24:15.823Z,61.56
2023-03-28T16:26:43.681Z,61.79
2023-03-28T16:29:12.210Z,61.68
2023-03-28T16:31:40.201Z,61.79
2023-03-28T16:34:10.080Z,61.92
2023-03-28T16:36:38.343Z,62.94
2023-03-28T16:39:08.412Z,63.59
2023-03-28T16:41:37.143Z,64.35
2023-03-28T16:44:05.300Z,64.90
2023-03-28T16:46:33.308Z,65.39
2023-03-28T16:49:01.256Z,65.88
2023-03-28T16:51:29.001Z,66.42
2023-03-28T16:53:56.798Z,67.09
2023-03-28T16:56:27.455Z,67.53
2023-03-28T16:58:55.410Z,68.02
2023-03-28T17:01:23.407Z,68.59
2023-03-28T17:03:52.755Z,68.79
2023-03-28T17:06:20.786Z,69.79
2023-03-28T17:08:48.851Z,69.93
2023-03-28T17:11:16.997Z,69.53
2023-03-28T17:13:47.533Z,69.86
2023-03-28T17:16:15.289Z,70.08
2023-03-28T17:18:43.249Z,70.01
2023-03-28T17:21:12.814Z,70.85
2023-03-28T17:23:44.321Z,70.15
2023-03-28T17:26:13.048Z,70.81
2023-03-28T17:28:42.296Z,70.24
2023-03-28T17:31:14.246Z,70.83
2023-03-28T17:33:42.448Z,70.46
2023-03-28T17:36:21.042Z,70.11
2023-03-28T17:38:49.777Z,70.09
2023-03-28T17:41:17.690Z,70.06
2023-03-28T17:43:45.860Z,69.47
2023-03-28T17:46:15.085Z,69.52
2023-03-28T17:48:43.480Z,69.45
2023-03-28T17:51:12.184Z,69.17
2023-03-28T17:53:41.191Z,69.42
2023-03-28T17:56:09.710Z,69.49
2023-03-28T17:58:38.061Z,69.39
2023-03-28T18:01:09.683Z,70.04
2023-03-28T18:03:39.779Z,70.59
2023-03-28T18:06:08.277Z,70.24
2023-03-28T18:08:36.471Z,70.33
2023-03-28T18:11:07.280Z,70.61
2023-03-28T18:13:35.969Z,71.75
2023-03-28T18:16:05.781Z,71.32
2023-03-28T18:18:34.098Z,72.19
2023-03-28T18:21:04.294Z,71.98
2023-03-28T18:23:32.472Z,72.38
2023-03-28T18:26:00.746Z,73.08
2023-03-28T18:28:28.755Z,72.59
2023-03-28T18:30:57.328Z,73.14
2023-03-28T18:33:25.128Z,73.45
2023-03-28T18:35:52.987Z,73.60
2023-03-28T18:38:22.372Z,73.78
2023-03-28T18:40:53.175Z,73.94
2023-03-28T18:43:21.364Z,74.23
2023-03-28T18:45:54.573Z,74.65
2023-03-28T18:48:22.798Z,74.86
2023-03-28T18:50:50.927Z,74.08
2023-03-28T18:53:18.703Z,74.61
2023-03-28T18:55:47.835Z,74.84
2023-03-28T18:58:16.155Z,74.19
2023-03-28T19:00:44.071Z,74.39
2023-03-28T19:03:17.647Z,74.83
2023-03-28T19:05:45.733Z,74.49
2023-03-28T19:08:13.462Z,74.71
2023-03-28T19:10:47.479Z,75.24
2023-03-28T19:13:15.423Z,75.39
2023-03-28T19:15:43.192Z,75.77
2023-03-28T19:18:11.134Z,76.65
2023-03-28T19:20:39.309Z,76.62
2023-03-28T19:23:07.659Z,76.24
2023-03-28T19:25:35.526Z,76.88
2023-03-28T19:28:04.656Z,77.35
2023-03-28T19:30:32.463Z,77.41
2023-03-28T19:33:00.314Z,77.62
2023-03-28T19:35:28.138Z,78.13
2023-03-28T19:37:56.121Z,78.06
2023-03-28T19:40:25.802Z,78.42
2023-03-28T19:42:53.665Z,78.14
2023-03-28T19:45:22.823Z,79.17
2023-03-28T19:47:51.730Z,79.48
2023-03-28T19:50:20.377Z,79.16
2023-03-28T19:52:48.346Z,78.85
2023-03-28T19:55:16.275Z,78.93
2023-03-28T19:57:44.085Z,79.52
2023-03-28T20:00:14.898Z,79.66
2023-03-28T20:02:44.297Z,79.85
2023-03-28T20:05:13.115Z,80.78
2023-03-28T20:07:41.093Z,80.15
2023-03-28T20:10:09.564Z,79.81
2023-03-28T20:12:39.796Z,80.16
2023-03-28T20:15:08.985Z,80.10
2023-03-28T20:17:36.911Z,80.82
2023-03-28T20:20:08.202Z,80.14
2023-03-28T20:22:36.243Z,80.97
2023-03-28T20:25:04.269Z,81.11
2023-03-28T20:27:32.877Z,81.89
2023-03-28T20:30:00.789Z,81.70
2023-03-28T20:32:28.584Z,81.60
2023-03-28T20:34:56.385Z,82.37
2023-03-28T20:37:25.606Z,82.16
2023-03-28T20:39:53.425Z,82.31
2023-03-28T20:42:21.147Z,82.55
2023-03-28T20:44:48.894Z,82.94
2023-03-28T20:47:22.092Z,82.39
2023-03-28T20:49:49.898Z,82.83
2023-03-28T20:52:17.651Z,82.31
2023-03-28T20:54:46.790Z,82.48
2023-03-28T20:57:14.609Z,82.70
2023-03-28T20:59:42.645Z,82.87
2023-03-28T21:02:12.392Z,83.24
2023-03-28T21:04:40.198Z,83.31
2023-03-28T21:07:07.953Z,83.39
2023-03-28T21:09:35.888Z,83.86
2023-03-28T21:12:05.342Z,83.28
2023-03-28T21:14:33.040Z,83.49
2023-03-28T21:17:00.996Z,84.05
2023-03-28T21:19:28.844Z,84.36
2023-03-28T21:21:57.131Z,84.13
2023-03-28T21:24:24.981Z,84.27
2023-03-28T21:26:52.689Z,83.65
2023-03-28T21:29:21.940Z,84.75
2023-03-28T21:31:49.728Z,84.83
2023-03-28T21:34:17.468Z,84.42
2023-03-28T21:36:45.363Z,84.36
2023-03-28T21:39:13.274Z,85.12
2023-03-28T21:41:41.066Z,84.65
2023-03-28T21:44:11.506Z,84.40
2023-03-28T21:46:40.572Z,84.63
2023-03-28T21:49:08.267Z,84.91
2023-03-28T21:51:36.126Z,84.66
2023-03-28T21:54:04.603Z,85.67
2023-03-28T21:56:32.397Z,85.10
2023-03-28T21:59:00.146Z,85.35
2023-03-28T22:01:27.945Z,85.95
2023-03-28T22:03:57.080Z,85.91
2023-03-28T22:06:24.921Z,85.37
2023-03-28T22:08:55.052Z,86.04
2023-03-28T22:11:28.522Z,86.13
2023-03-28T22:14:01.507Z,85.55
2023-03-28T22:16:35.081Z,85.88
2023-03-28T22:19:04.410Z,86.39
2023-03-28T22:21:32.491Z,86.46
2023-03-28T22:24:02.875Z,85.81
2023-03-28T22:26:31.501Z,86.22
2023-03-28T22:28:59.798Z,86.44
2023-03-28T22:31:28.416Z,86.27
2023-03-28T22:33:56.573Z,86.55
2023-03-28T22:36:25.719Z,86.33
2023-03-28T22:38:54.753Z,86.51
2023-03-28T22:41:23.720Z,86.91
2023-03-28T22:43:51.492Z,86.52
2023-03-28T22:46:20.483Z,87.07
2023-03-28T22:48:54.168Z,87.25
2023-03-28T22:51:27.940Z,86.49
2023-03-28T22:54:01.725Z,87.02
2023-03-28T22:56:29.677Z,86.90
2023-03-28T22:59:01.280Z,87.21
2023-03-28T23:01:30.041Z,87.57
2023-03-28T23:04:01.144Z,87.10
2023-03-28T23:06:39.119Z,87.43
2023-03-28T23:09:09.316Z,87.99
2023-03-28T23:11:39.954Z,87.82
2023-03-28T23:14:09.111Z,86.99
2023-03-28T23:16:38.313Z,88.32
2023-03-28T23:19:07.246Z,87.83
2023-03-28T23:21:36.807Z,88.18
2023-03-28T23:24:05.274Z,87.34
2023-03-28T23:26:34.358Z,87.59
2023-03-28T23:29:02.569Z,88.29
2023-03-28T23:31:30.480Z,87.57
2023-03-28T23:33:58.301Z,87.68
2023-03-28T23:36:26.170Z,88.63
2023-03-28T23:38:55.918Z,87.43
2023-03-28T23:41:23.689Z,88.68
2023-03-28T23:43:52.774Z,88.00
2023-03-28T23:46:20.737Z,87.95
2023-03-28T23:48:48.488Z,88.47
2023-03-28T23:51:16.212Z,88.18
2023-03-28T23:53:45.047Z,87.53
2023-03-28T23:56:12.736Z,86.92
2023-03-28T23:58:40.453Z,87.56
